Time;durP1;ratioP1;P1;durP2;ratioP2;P2;SDS_P1;SDS_P2;PMS_P1;PMS_P2;Temp;Humidity;BMP_temperature;BMP_pressure;BME280_temperature;BME280_humidity;BME280_pressure;Samples;Min_cycle;Max_cycle;Signal;HPM_P1;HPM_P2
2023/07/09 00:02:18;;;;;;;9.17;4.20;;;20.30;99.90;;;;;;4986157;28;20054;-66
2023/07/09 00:04:44;;;;;;;6.00;3.53;;;20.20;99.90;;;;;;4989597;28;20025;-66
2023/07/09 00:07:18;;;;;;;5.57;3.58;;;20.20;99.90;;;;;;4991073;28;20109;-66
2023/07/09 00:09:44;;;;;;;8.38;3.88;;;20.10;99.90;;;;;;4965522;28;20143;-66
2023/07/09 00:12:18;;;;;;;9.40;4.43;;;20.10;99.90;;;;;;4970772;28;20038;-66
2023/07/09 00:14:44;;;;;;;7.88;4.60;;;20.00;99.90;;;;;;4986816;28;20041;-66
2023/07/09 00:17:25;;;;;;;5.60;3.58;;;20.20;99.90;;;;;;4985888;28;20061;-66
2023/07/09 00:19:51;;;;;;;5.85;3.78;;;20.30;99.90;;;;;;4985686;28;21763;-67
2023/07/09 00:22:18;;;;;;;8.30;3.85;;;20.20;99.90;;;;;;4981899;28;20643;-66
2023/07/09 00:24:47;;;;;;;8.75;4.05;;;20.20;99.90;;;;;;4986972;28;20027;-66
2023/07/09 00:27:15;;;;;;;7.25;3.83;;;20.20;99.90;;;;;;4973274;28;20022;-65
2023/07/09 00:29:42;;;;;;;9.75;5.05;;;20.20;99.90;;;;;;4986512;28;20039;-65
2023/07/09 00:32:15;;;;;;;7.75;3.78;;;20.10;99.90;;;;;;4990015;28;20498;-65
2023/07/09 00:34:40;;;;;;;9.07;3.90;;;20.10;99.90;;;;;;4987882;28;20106;-66
2023/07/09 00:37:12;;;;;;;6.10;4.00;;;20.00;99.90;;;;;;4986792;28;20591;-66
2023/07/09 00:39:40;;;;;;;10.07;4.25;;;20.10;99.90;;;;;;4987901;28;20018;-66
2023/07/09 00:42:11;;;;;;;13.73;4.65;;;20.10;99.90;;;;;;4989247;28;20022;-66
2023/07/09 00:44:36;;;;;;;9.85;4.57;;;20.10;99.90;;;;;;4967079;28;20047;-66
2023/07/09 00:47:49;;;;;;;10.95;5.15;;;20.10;99.90;;;;;;4972709;28;20034;-65
2023/07/09 00:50:27;;;;;;;8.52;4.15;;;19.90;99.90;;;;;;4910459;29;20036;-65
2023/07/09 00:53:02;;;;;;;12.85;4.00;;;19.90;99.90;;;;;;4910116;29;20028;-65
2023/07/09 00:55:32;;;;;;;8.57;4.53;;;19.80;99.90;;;;;;4957054;28;20206;-65
2023/07/09 00:58:01;;;;;;;7.43;3.75;;;19.80;99.90;;;;;;4989221;28;20678;-65
2023/07/09 01:00:46;;;;;;;9.02;3.75;;;19.70;99.90;;;;;;4971592;28;20145;-65
2023/07/09 01:03:34;;;;;;;9.90;4.18;;;19.80;99.90;;;;;;4989069;28;20033;-65
2023/07/09 01:06:01;;;;;;;8.45;4.40;;;19.70;99.90;;;;;;4988273;28;20392;-65
2023/07/09 01:08:30;;;;;;;10.95;4.28;;;19.80;99.90;;;;;;4989267;28;20106;-65
2023/07/09 01:10:58;;;;;;;9.40;3.70;;;19.80;99.90;;;;;;4984474;28;20583;-65
2023/07/09 01:13:26;;;;;;;6.45;4.25;;;19.80;99.90;;;;;;4986232;28;20089;-65
2023/07/09 01:15:51;;;;;;;8.07;4.20;;;19.80;99.90;;;;;;4985140;28;20022;-65
2023/07/09 01:18:17;;;;;;;6.63;3.95;;;19.80;99.90;;;;;;4983212;28;20515;-65
2023/07/09 01:20:43;;;;;;;9.32;4.57;;;19.70;99.90;;;;;;4987539;28;20030;-65
2023/07/09 01:23:09;;;;;;;8.10;4.28;;;19.70;99.90;;;;;;4983854;28;20034;-65
2023/07/09 01:25:46;;;;;;;9.40;4.25;;;19.60;99.90;;;;;;4987612;28;20138;-65
2023/07/09 01:28:13;;;;;;;8.00;3.88;;;19.50;99.90;;;;;;4967810;28;20023;-64
2023/07/09 01:30:40;;;;;;;11.20;5.20;;;19.50;99.90;;;;;;4986302;28;20026;-65
2023/07/09 01:33:07;;;;;;;7.68;4.35;;;19.40;99.90;;;;;;4984689;28;20066;-65
2023/07/09 01:35:36;;;;;;;11.48;4.10;;;19.40;99.90;;;;;;4988169;28;20480;-64
2023/07/09 01:38:06;;;;;;;7.18;4.43;;;19.30;99.90;;;;;;4983412;28;20037;-65
2023/07/09 01:40:32;;;;;;;5.60;3.90;;;19.30;99.90;;;;;;4983319;28;20034;-66
2023/07/09 01:42:58;;;;;;;8.00;4.00;;;19.40;99.90;;;;;;4968968;28;20039;-66
2023/07/09 01:45:24;;;;;;;11.57;4.97;;;19.40;99.90;;;;;;4985559;28;20022;-66
2023/07/09 01:47:50;;;;;;;7.22;3.75;;;19.50;99.90;;;;;;4985481;28;20790;-66
2023/07/09 01:50:16;;;;;;;8.98;4.30;;;19.50;99.90;;;;;;4980070;28;20494;-66
2023/07/09 01:52:43;;;;;;;9.57;4.00;;;19.40;99.90;;;;;;4984872;28;20035;-66
2023/07/09 01:55:11;;;;;;;8.30;4.15;;;19.40;99.90;;;;;;4988848;28;20038;-66
2023/07/09 01:57:36;;;;;;;9.05;4.35;;;19.40;99.90;;;;;;4986561;28;20022;-65
2023/07/09 02:00:06;;;;;;;10.07;4.63;;;19.30;99.90;;;;;;4986737;28;20153;-65
2023/07/09 02:02:32;;;;;;;7.35;4.05;;;19.10;99.90;;;;;;4967685;28;20030;-66
2023/07/09 02:04:59;;;;;;;6.20;3.88;;;19.00;99.90;;;;;;4985329;28;20421;-66
2023/07/09 02:07:25;;;;;;;5.72;3.25;;;19.00;99.90;;;;;;4983746;28;20046;-66
2023/07/09 02:09:51;;;;;;;7.72;4.18;;;19.00;99.90;;;;;;4985008;28;20127;-66
2023/07/09 02:12:17;;;;;;;9.05;4.07;;;19.10;99.90;;;;;;4986099;28;20158;-66
2023/07/09 02:14:45;;;;;;;8.82;4.72;;;19.10;99.90;;;;;;4985851;28;20089;-66
2023/07/09 02:17:12;;;;;;;13.13;3.95;;;19.10;99.90;;;;;;4985548;28;20026;-66
2023/07/09 02:19:38;;;;;;;7.68;3.78;;;19.10;99.90;;;;;;4985231;28;20029;-66
2023/07/09 02:22:04;;;;;;;10.30;4.57;;;19.10;99.90;;;;;;4984592;28;20026;-65
2023/07/09 02:24:30;;;;;;;7.97;4.45;;;19.00;99.90;;;;;;4985481;28;20715;-66
2023/07/09 02:26:58;;;;;;;6.88;3.95;;;19.00;99.90;;;;;;4984785;28;20026;-66
2023/07/09 02:29:24;;;;;;;5.68;3.85;;;18.90;99.90;;;;;;4988225;28;20489;-66
2023/07/09 02:31:52;;;;;;;12.00;4.20;;;18.90;99.90;;;;;;4986446;28;20086;-66
2023/07/09 02:34:19;;;;;;;12.77;4.35;;;18.90;99.90;;;;;;4969136;28;20026;-66
2023/07/09 02:36:44;;;;;;;8.35;4.47;;;18.80;99.90;;;;;;4987315;28;20061;-65
2023/07/09 02:39:12;;;;;;;7.47;4.00;;;18.80;99.90;;;;;;4984865;28;20030;-65
2023/07/09 02:41:38;;;;;;;10.75;4.57;;;18.80;99.90;;;;;;4964293;28;20039;-66
2023/07/09 02:44:04;;;;;;;9.30;5.13;;;18.80;99.90;;;;;;4963579;28;20528;-65
2023/07/09 02:46:30;;;;;;;11.27;4.30;;;18.80;99.90;;;;;;4982497;28;20025;-65
2023/07/09 02:48:56;;;;;;;6.50;3.60;;;18.80;99.90;;;;;;4985383;28;20027;-66
2023/07/09 02:51:22;;;;;;;8.52;4.55;;;18.90;99.90;;;;;;4985079;28;20256;-65
2023/07/09 02:53:48;;;;;;;14.02;4.50;;;18.80;99.90;;;;;;4974115;28;20647;-66
2023/07/09 02:56:13;;;;;;;7.55;4.10;;;18.80;99.90;;;;;;4986168;28;20045;-66
2023/07/09 02:58:39;;;;;;;8.82;4.55;;;18.70;99.90;;;;;;4974138;28;20019;-65
2023/07/09 03:01:05;;;;;;;6.47;4.40;;;18.60;99.90;;;;;;4990970;28;20037;-65
2023/07/09 03:03:31;;;;;;;9.40;4.70;;;18.60;99.90;;;;;;4987225;28;20546;-65
2023/07/09 03:05:57;;;;;;;9.65;4.22;;;18.60;99.90;;;;;;4990366;28;20113;-65
2023/07/09 03:08:22;;;;;;;10.52;5.50;;;18.60;99.90;;;;;;4991490;28;20458;-65
2023/07/09 03:10:48;;;;;;;9.18;4.28;;;18.60;99.90;;;;;;4987205;28;20026;-65
2023/07/09 03:13:14;;;;;;;9.88;3.92;;;18.60;99.90;;;;;;4992981;28;20089;-66
2023/07/09 03:15:39;;;;;;;8.35;4.57;;;18.50;99.90;;;;;;4987334;28;20464;-65
2023/07/09 03:18:05;;;;;;;6.45;4.03;;;18.60;99.90;;;;;;4988416;28;20030;-65
2023/07/09 03:20:30;;;;;;;6.88;3.75;;;18.60;99.90;;;;;;4989794;28;20022;-65
2023/07/09 03:22:56;;;;;;;6.53;4.15;;;18.50;99.90;;;;;;4990450;28;20404;-65
2023/07/09 03:25:21;;;;;;;9.35;4.28;;;18.50;99.90;;;;;;4989481;28;20109;-65
2023/07/09 03:27:48;;;;;;;17.67;5.20;;;18.40;99.90;;;;;;4972174;28;20030;-66
2023/07/09 03:30:14;;;;;;;9.43;5.65;;;18.40;99.90;;;;;;4990027;28;20034;-66
2023/07/09 03:32:40;;;;;;;7.70;4.25;;;18.40;99.90;;;;;;4990528;28;20038;-66
2023/07/09 03:35:06;;;;;;;9.23;4.55;;;18.40;99.90;;;;;;4990542;28;20085;-66
2023/07/09 03:37:32;;;;;;;7.07;3.88;;;18.40;99.90;;;;;;4982694;28;20060;-66
2023/07/09 03:39:58;;;;;;;8.35;4.47;;;18.40;99.90;;;;;;4983714;28;20535;-65
2023/07/09 03:42:23;;;;;;;7.28;4.43;;;18.40;99.90;;;;;;4986330;28;20114;-65
2023/07/09 03:44:49;;;;;;;7.38;4.28;;;18.40;99.90;;;;;;4948466;28;20070;-65
2023/07/09 03:47:14;;;;;;;9.43;5.50;;;18.40;99.90;;;;;;4983995;28;20114;-65
2023/07/09 03:49:41;;;;;;;5.68;3.80;;;18.40;99.90;;;;;;4985718;28;20660;-66
2023/07/09 03:52:07;;;;;;;9.55;4.45;;;18.50;99.90;;;;;;4984844;28;20453;-65
2023/07/09 03:54:33;;;;;;;10.45;4.93;;;18.50;99.90;;;;;;4984431;28;20065;-65
2023/07/09 03:56:58;;;;;;;7.82;4.20;;;18.60;99.90;;;;;;4990394;28;20022;-66
2023/07/09 03:59:24;;;;;;;7.93;4.20;;;18.70;99.90;;;;;;4983023;28;20030;-67
2023/07/09 04:01:49;;;;;;;8.77;4.68;;;18.80;99.90;;;;;;4985425;28;20038;-66
2023/07/09 04:04:20;;;;;;;9.75;3.90;;;18.90;99.90;;;;;;4983748;28;20129;-66
2023/07/09 04:06:45;;;;;;;8.35;3.75;;;19.00;99.90;;;;;;4986970;28;20034;-67
2023/07/09 04:09:11;;;;;;;8.52;3.75;;;19.00;99.90;;;;;;4988883;28;21126;-66
2023/07/09 04:11:37;;;;;;;10.75;4.40;;;19.10;99.90;;;;;;4986022;28;20455;-66
2023/07/09 04:14:02;;;;;;;14.30;4.45;;;19.20;99.90;;;;;;4983597;28;20583;-64
2023/07/09 04:16:28;;;;;;;8.05;4.82;;;19.20;99.90;;;;;;4983721;28;20018;-65
2023/07/09 04:18:53;;;;;;;13.45;4.78;;;19.30;99.90;;;;;;4989934;28;20029;-65
2023/07/09 04:21:19;;;;;;;10.52;5.15;;;19.40;99.90;;;;;;4986448;28;20030;-65
2023/07/09 04:23:44;;;;;;;9.98;4.55;;;19.50;99.90;;;;;;4992083;28;20034;-65
2023/07/09 04:26:13;;;;;;;7.25;4.43;;;19.60;99.90;;;;;;4977748;28;20555;-65
2023/07/09 04:28:39;;;;;;;6.85;4.00;;;19.80;99.90;;;;;;4989594;28;20034;-65
2023/07/09 04:31:05;;;;;;;9.38;4.15;;;20.00;99.90;;;;;;4988855;28;20030;-65
2023/07/09 04:33:30;;;;;;;10.73;5.03;;;20.10;99.90;;;;;;4987786;28;20043;-65
2023/07/09 04:35:57;;;;;;;10.80;4.78;;;20.20;99.90;;;;;;4987867;28;20022;-65
2023/07/09 04:38:22;;;;;;;6.22;3.63;;;20.30;99.90;;;;;;4988934;28;20033;-65
2023/07/09 04:40:48;;;;;;;5.85;3.83;;;20.80;99.90;;;;;;4989345;28;20023;-65
2023/07/09 04:43:14;;;;;;;9.82;5.32;;;21.40;99.90;;;;;;4978885;28;20027;-65
2023/07/09 04:45:40;;;;;;;12.25;4.68;;;22.30;99.90;;;;;;4962315;28;20377;-65
2023/07/09 04:48:06;;;;;;;7.90;3.25;;;22.80;99.90;;;;;;4987244;28;20030;-65
2023/07/09 04:50:32;;;;;;;7.05;3.55;;;23.00;99.90;;;;;;4987853;28;20034;-65
2023/07/09 04:52:58;;;;;;;6.47;3.78;;;23.20;99.90;;;;;;4989020;28;20033;-65
2023/07/09 04:55:24;;;;;;;6.22;3.80;;;23.80;99.90;;;;;;4990136;28;20026;-66
2023/07/09 04:57:50;;;;;;;7.93;3.20;;;24.10;99.90;;;;;;4990304;28;20022;-65
2023/07/09 05:00:16;;;;;;;7.40;3.72;;;24.60;99.90;;;;;;4988691;28;20038;-65
2023/07/09 05:02:41;;;;;;;7.18;4.05;;;25.20;99.30;;;;;;4985732;28;21414;-65
2023/07/09 05:05:07;;;;;;;7.95;3.92;;;25.60;98.20;;;;;;4988368;28;20062;-65
2023/07/09 05:07:33;;;;;;;5.32;3.47;;;26.10;96.60;;;;;;4984921;28;20030;-65
2023/07/09 05:09:58;;;;;;;9.93;3.20;;;26.70;95.20;;;;;;4978908;28;20085;-65
2023/07/09 05:12:27;;;;;;;9.23;3.15;;;27.40;94.80;;;;;;4985152;28;20026;-65
2023/07/09 05:14:54;;;;;;;10.23;3.97;;;27.60;94.00;;;;;;4982471;28;20041;-66
2023/07/09 05:17:19;;;;;;;6.95;3.35;;;27.50;93.70;;;;;;4985697;28;20037;-66
2023/07/09 05:19:45;;;;;;;7.82;3.53;;;28.30;92.50;;;;;;4984928;28;20023;-66
2023/07/09 05:22:11;;;;;;;5.03;2.85;;;28.40;91.40;;;;;;4983769;28;20138;-65
2023/07/09 05:24:36;;;;;;;6.82;3.88;;;29.00;91.20;;;;;;4968012;28;20038;-66
2023/07/09 05:27:02;;;;;;;5.72;3.28;;;29.60;89.60;;;;;;4983625;28;20543;-65
2023/07/09 05:29:28;;;;;;;3.92;2.67;;;29.60;89.00;;;;;;4987308;28;20633;-64
2023/07/09 05:31:53;;;;;;;7.70;3.22;;;30.30;87.30;;;;;;4987419;28;20037;-65
2023/07/09 05:34:19;;;;;;;5.68;3.65;;;30.50;86.70;;;;;;4982767;28;20028;-65
2023/07/09 05:36:44;;;;;;;4.68;3.05;;;30.40;86.50;;;;;;4986206;28;20193;-65
2023/07/09 05:39:10;;;;;;;5.50;3.13;;;30.50;86.00;;;;;;4990352;28;20506;-65
2023/07/09 05:41:36;;;;;;;10.23;3.50;;;30.20;87.20;;;;;;4986562;28;20026;-65
2023/07/09 05:44:01;;;;;;;11.85;3.47;;;29.70;87.30;;;;;;4969370;28;20045;-65
2023/07/09 05:46:27;;;;;;;7.65;3.28;;;30.80;84.50;;;;;;4985886;28;20026;-66
2023/07/09 05:48:53;;;;;;;6.65;3.45;;;30.50;85.90;;;;;;4985505;28;20425;-66
2023/07/09 05:51:19;;;;;;;6.75;2.95;;;30.60;85.80;;;;;;4989335;28;20444;-66
2023/07/09 05:53:44;;;;;;;6.05;3.08;;;30.80;85.50;;;;;;4985898;28;20488;-66
2023/07/09 05:56:10;;;;;;;7.53;3.67;;;31.70;83.20;;;;;;4988104;28;20504;-65
2023/07/09 05:58:37;;;;;;;4.55;3.33;;;31.90;81.40;;;;;;4986858;28;20056;-66
2023/07/09 06:01:02;;;;;;;7.78;4.20;;;32.00;80.90;;;;;;4984758;28;20085;-66
2023/07/09 06:03:29;;;;;;;8.02;3.53;;;31.40;81.10;;;;;;4965101;28;20400;-66
2023/07/09 06:05:57;;;;;;;4.82;3.08;;;32.10;80.70;;;;;;4982130;28;20550;-67
2023/07/09 06:08:22;;;;;;;7.05;3.40;;;33.00;79.10;;;;;;4969583;28;20044;-67
2023/07/09 06:10:56;;;;;;;6.25;3.25;;;32.70;78.70;;;;;;4979895;28;20026;-67
2023/07/09 06:13:23;;;;;;;8.30;3.80;;;32.50;79.90;;;;;;4985181;28;20045;-66
2023/07/09 06:15:49;;;;;;;6.63;3.50;;;32.50;79.50;;;;;;4979205;28;20022;-66
2023/07/09 06:18:15;;;;;;;6.78;3.70;;;33.10;78.50;;;;;;4983944;28;20073;-67
2023/07/09 06:20:40;;;;;;;7.18;2.88;;;32.80;77.80;;;;;;4987354;28;20022;-66
2023/07/09 06:23:07;;;;;;;4.70;3.13;;;32.70;77.90;;;;;;4987929;28;20495;-64
2023/07/09 06:25:32;;;;;;;6.13;3.58;;;32.90;78.70;;;;;;4967479;28;20445;-64
2023/07/09 06:27:58;;;;;;;5.28;3.42;;;34.00;77.40;;;;;;4990072;28;20026;-64
2023/07/09 06:30:23;;;;;;;8.05;3.05;;;33.70;77.30;;;;;;4986994;28;20036;-65
2023/07/09 06:32:49;;;;;;;6.15;3.83;;;34.60;75.40;;;;;;4991740;28;20034;-65
2023/07/09 06:35:15;;;;;;;4.97;3.53;;;34.20;74.80;;;;;;4987859;28;20117;-65
2023/07/09 06:37:40;;;;;;;5.28;3.03;;;35.00;73.60;;;;;;4984994;28;20480;-65
2023/07/09 06:40:08;;;;;;;6.90;3.10;;;34.20;75.30;;;;;;4988272;28;20097;-65
2023/07/09 06:42:35;;;;;;;4.35;3.05;;;34.00;74.80;;;;;;4992497;28;20395;-65
2023/07/09 06:45:01;;;;;;;12.02;3.67;;;34.10;76.10;;;;;;4969989;28;20066;-65
2023/07/09 06:47:27;;;;;;;7.70;3.40;;;35.30;73.60;;;;;;4992257;28;20068;-66
2023/07/09 06:49:52;;;;;;;5.57;3.30;;;34.90;74.10;;;;;;4992238;28;20026;-65
2023/07/09 06:52:18;;;;;;;5.85;3.33;;;35.80;72.70;;;;;;4989988;28;20401;-66
2023/07/09 06:54:43;;;;;;;5.60;3.45;;;35.40;73.80;;;;;;4986926;28;20147;-65
2023/07/09 06:57:09;;;;;;;5.03;3.35;;;36.70;71.30;;;;;;4989752;28;20026;-65
2023/07/09 06:59:35;;;;;;;6.10;3.00;;;36.10;70.90;;;;;;4986772;28;20038;-65
2023/07/09 07:02:00;;;;;;;5.68;2.65;;;36.00;71.80;;;;;;4989734;28;20480;-65
2023/07/09 07:04:27;;;;;;;5.70;2.83;;;36.60;70.70;;;;;;4990012;28;20034;-65
2023/07/09 07:06:55;;;;;;;6.85;3.95;;;37.50;68.70;;;;;;4989047;28;20491;-65
2023/07/09 07:09:21;;;;;;;6.40;3.42;;;36.70;69.90;;;;;;4991265;28;20045;-65
2023/07/09 07:11:46;;;;;;;4.93;3.63;;;36.70;69.10;;;;;;4991381;28;20967;-66
2023/07/09 07:14:12;;;;;;;5.15;3.13;;;35.80;70.10;;;;;;4989286;28;20088;-66
2023/07/09 07:16:37;;;;;;;13.15;3.40;;;35.80;72.10;;;;;;4994361;28;20066;-66
2023/07/09 07:21:31;;;;;;;9.45;3.88;;;36.50;70.20;;;;;;4965214;28;20382;-65
2023/07/09 07:23:56;;;;;;;8.88;3.75;;;36.00;70.60;;;;;;4966237;28;20034;-61
2023/07/09 07:26:22;;;;;;;6.10;4.40;;;36.00;70.20;;;;;;4970382;28;20031;-67
2023/07/09 07:28:48;;;;;;;5.35;3.17;;;37.10;68.40;;;;;;4969377;28;20153;-66
2023/07/09 07:31:13;;;;;;;6.00;3.50;;;37.30;68.30;;;;;;4968293;28;20425;-65
2023/07/09 07:33:41;;;;;;;5.05;3.30;;;37.00;68.50;;;;;;4966822;28;20574;-66
2023/07/09 07:36:08;;;;;;;6.13;3.20;;;37.60;66.90;;;;;;4970334;28;20027;-65
2023/07/09 07:38:33;;;;;;;8.68;4.20;;;38.10;67.10;;;;;;4968417;28;20039;-66
2023/07/09 07:41:01;;;;;;;5.15;3.60;;;37.70;66.10;;;;;;4966466;28;20392;-67
2023/07/09 07:43:26;;;;;;;4.95;2.97;;;38.10;67.10;;;;;;4970876;28;20105;-65
2023/07/09 07:45:52;;;;;;;5.85;3.40;;;37.90;66.50;;;;;;4970921;28;20596;-67
2023/07/09 07:48:17;;;;;;;6.20;3.38;;;38.70;64.50;;;;;;4967189;28;20359;-67
2023/07/09 07:50:45;;;;;;;10.93;3.60;;;38.70;65.90;;;;;;4973364;28;20110;-66
2023/07/09 07:53:11;;;;;;;6.45;3.13;;;39.10;64.30;;;;;;4961796;28;20026;-65
2023/07/09 07:55:37;;;;;;;7.93;3.63;;;39.70;64.60;;;;;;4965499;28;20030;-65
2023/07/09 07:58:03;;;;;;;6.75;3.78;;;38.40;64.10;;;;;;4964792;28;20023;-65
2023/07/09 08:00:30;;;;;;;6.25;3.22;;;38.60;65.80;;;;;;4973450;28;20395;-66
2023/07/09 08:02:56;;;;;;;8.93;2.97;;;39.40;62.90;;;;;;4974397;28;20018;-64
2023/07/09 08:05:23;;;;;;;8.20;3.25;;;39.80;63.40;;;;;;4970623;28;20126;-65
2023/07/09 08:07:49;;;;;;;4.68;3.35;;;39.80;63.10;;;;;;4967454;28;20468;-66
2023/07/09 08:10:15;;;;;;;4.45;3.28;;;39.80;63.90;;;;;;4962560;28;20029;-67
2023/07/09 08:12:41;;;;;;;3.83;3.38;;;39.70;63.60;;;;;;4955565;29;20047;-66
2023/07/09 08:15:07;;;;;;;7.55;3.63;;;39.20;63.30;;;;;;4954921;29;20058;-64
2023/07/09 08:17:33;;;;;;;4.60;2.90;;;39.10;64.20;;;;;;4954330;29;20027;-67
2023/07/09 08:19:58;;;;;;;11.00;3.30;;;39.60;64.70;;;;;;4968138;28;20041;-66
2023/07/09 08:22:24;;;;;;;6.20;3.58;;;39.80;63.40;;;;;;4966709;28;20023;-65
2023/07/09 08:24:51;;;;;;;5.72;3.40;;;40.30;63.60;;;;;;4974683;28;20499;-66
2023/07/09 08:27:17;;;;;;;5.85;3.47;;;39.70;63.10;;;;;;4974401;28;20035;-66
2023/07/09 08:29:43;;;;;;;5.13;3.22;;;39.90;63.10;;;;;;4974489;28;20073;-66
2023/07/09 08:32:10;;;;;;;5.25;3.30;;;40.50;61.90;;;;;;4974403;28;20063;-66
2023/07/09 08:34:35;;;;;;;5.00;3.28;;;41.30;60.40;;;;;;4974263;28;20743;-66
2023/07/09 08:37:02;;;;;;;5.85;2.80;;;40.80;60.70;;;;;;4974231;28;20140;-65
2023/07/09 08:39:27;;;;;;;9.38;4.15;;;40.50;59.50;;;;;;4974399;28;20027;-66
2023/07/09 08:42:13;;;;;;;4.85;3.15;;;40.20;59.70;;;;;;4956994;28;20495;-66
2023/07/09 08:44:59;;;;;;;7.15;2.85;;;39.90;60.40;;;;;;4974246;28;20146;-65
2023/07/09 08:47:39;;;;;;;7.53;3.47;;;39.70;62.20;;;;;;4973954;28;20022;-65
2023/07/09 08:50:16;;;;;;;9.10;3.53;;;40.50;60.50;;;;;;4974152;28;20100;-66
2023/07/09 08:52:44;;;;;;;6.20;3.20;;;40.20;60.90;;;;;;4974180;28;20114;-66
2023/07/09 08:55:15;;;;;;;6.32;3.17;;;39.70;60.60;;;;;;4973967;28;20085;-66
2023/07/09 08:57:45;;;;;;;8.63;3.15;;;39.80;61.00;;;;;;4973902;28;20054;-66
2023/07/09 09:00:31;;;;;;;9.88;3.22;;;39.70;61.00;;;;;;4973967;28;20022;-67
2023/07/09 09:03:13;;;;;;;4.80;3.20;;;40.00;61.70;;;;;;4973995;28;20354;-66
2023/07/09 09:05:44;;;;;;;4.97;2.85;;;39.90;60.40;;;;;;4973747;28;20061;-66
2023/07/09 09:08:19;;;;;;;5.90;3.85;;;40.50;61.50;;;;;;4973784;28;20054;-66
2023/07/09 09:10:51;;;;;;;10.63;3.65;;;40.80;59.50;;;;;;4973788;28;20033;-67
2023/07/09 09:13:20;;;;;;;5.90;3.53;;;41.40;58.30;;;;;;4973751;28;20574;-65
2023/07/09 09:15:49;;;;;;;6.13;3.40;;;40.60;61.30;;;;;;4973511;28;20046;-65
2023/07/09 09:18:26;;;;;;;6.88;2.95;;;39.80;60.50;;;;;;4973471;28;20025;-65
2023/07/09 09:21:03;;;;;;;5.40;3.33;;;39.80;60.10;;;;;;4973512;28;20121;-66
2023/07/09 09:23:39;;;;;;;4.55;2.70;;;40.40;60.70;;;;;;4973589;28;20046;-67
2023/07/09 09:26:15;;;;;;;4.05;3.10;;;40.40;60.90;;;;;;4973453;28;20388;-66
2023/07/09 09:28:40;;;;;;;6.70;3.90;;;40.20;60.70;;;;;;4973346;28;20022;-65
2023/07/09 09:31:10;;;;;;;4.93;3.10;;;40.70;61.70;;;;;;4973378;28;20042;-66
2023/07/09 09:33:41;;;;;;;7.88;4.22;;;41.00;59.50;;;;;;4973336;28;20034;-65
2023/07/09 09:36:13;;;;;;;7.43;3.75;;;41.60;58.70;;;;;;4973326;28;20018;-66
2023/07/09 09:38:39;;;;;;;8.02;2.75;;;41.90;58.70;;;;;;4973234;28;20034;-66
2023/07/09 09:41:09;;;;;;;7.25;3.85;;;41.80;59.80;;;;;;4973171;28;20027;-66
2023/07/09 09:43:34;;;;;;;4.50;3.03;;;41.40;59.70;;;;;;4973283;28;20511;-65
2023/07/09 09:46:06;;;;;;;5.63;3.00;;;41.20;59.80;;;;;;4973077;28;20023;-65
2023/07/09 09:48:32;;;;;;;4.65;3.10;;;41.50;59.60;;;;;;4973101;28;20102;-65
2023/07/09 09:51:03;;;;;;;5.57;3.75;;;41.60;57.10;;;;;;4973127;28;20027;-67
2023/07/09 09:53:34;;;;;;;6.80;3.30;;;41.40;57.80;;;;;;4973054;28;20378;-66
2023/07/09 09:56:05;;;;;;;6.65;2.75;;;40.70;58.90;;;;;;4972893;28;20058;-65
2023/07/09 09:58:31;;;;;;;8.13;3.25;;;40.60;59.40;;;;;;4973038;28;20035;-65
2023/07/09 10:01:00;;;;;;;6.95;3.67;;;39.90;59.80;;;;;;4972614;28;20081;-66
2023/07/09 10:03:36;;;;;;;5.03;3.20;;;40.60;59.80;;;;;;4973063;28;20441;-66
2023/07/09 10:06:28;;;;;;;6.55;3.45;;;40.90;59.90;;;;;;4972867;28;20030;-65
2023/07/09 10:09:17;;;;;;;6.18;3.13;;;40.50;59.80;;;;;;4973078;28;20527;-65
2023/07/09 10:11:55;;;;;;;6.85;3.30;;;40.20;58.50;;;;;;4972982;28;20480;-67
2023/07/09 10:14:36;;;;;;;7.00;3.35;;;40.10;61.10;;;;;;4972796;28;20037;-65
2023/07/09 10:17:19;;;;;;;4.43;2.90;;;39.80;60.20;;;;;;4973112;28;20023;-66
2023/07/09 10:20:08;;;;;;;8.50;3.67;;;39.50;61.00;;;;;;4972964;28;20027;-65
2023/07/09 10:22:49;;;;;;;6.47;2.90;;;39.50;59.80;;;;;;4972946;28;20027;-65
2023/07/09 10:25:37;;;;;;;6.22;3.20;;;39.10;61.20;;;;;;4972979;28;20388;-65
2023/07/09 10:28:35;;;;;;;8.32;2.90;;;38.70;61.10;;;;;;4955469;28;20034;-65
2023/07/09 10:31:17;;;;;;;10.98;3.30;;;38.20;61.50;;;;;;4948786;28;20121;-66
2023/07/09 10:34:00;;;;;;;5.73;3.00;;;37.80;61.50;;;;;;4972830;28;20109;-64
2023/07/09 10:36:46;;;;;;;7.93;3.47;;;37.60;61.50;;;;;;4972504;28;20025;-65
2023/07/09 10:39:22;;;;;;;7.00;2.90;;;37.80;63.00;;;;;;4972728;28;20023;-65
2023/07/09 10:41:50;;;;;;;3.80;2.78;;;37.80;62.60;;;;;;4972736;28;20030;-65
2023/07/09 10:44:20;;;;;;;4.57;2.95;;;38.00;63.40;;;;;;4972680;28;20045;-65
2023/07/09 10:46:52;;;;;;;7.65;2.80;;;37.80;62.60;;;;;;4972530;28;20245;-65
2023/07/09 10:49:19;;;;;;;5.28;2.70;;;37.70;62.40;;;;;;4972657;28;20023;-65
2023/07/09 10:51:49;;;;;;;5.00;2.83;;;37.70;62.10;;;;;;4972616;28;20034;-66
2023/07/09 10:54:34;;;;;;;5.50;2.65;;;37.90;61.50;;;;;;4972761;28;20050;-65
2023/07/09 10:57:09;;;;;;;5.40;3.47;;;37.80;61.70;;;;;;4972362;28;20110;-66
2023/07/09 10:59:39;;;;;;;4.43;2.63;;;37.50;61.10;;;;;;4972497;28;20419;-65
2023/07/09 11:02:34;;;;;;;9.48;3.45;;;37.40;60.10;;;;;;4972551;28;20078;-65
2023/07/09 11:05:03;;;;;;;8.55;3.05;;;37.40;61.90;;;;;;4972445;28;20082;-65
2023/07/09 11:07:33;;;;;;;4.35;2.67;;;37.00;60.90;;;;;;4972237;28;20042;-65
2023/07/09 11:10:04;;;;;;;6.50;2.70;;;37.00;62.70;;;;;;4972285;28;20065;-66
2023/07/09 11:12:35;;;;;;;6.95;3.00;;;37.10;60.80;;;;;;4972430;28;20118;-65
2023/07/09 11:15:09;;;;;;;8.23;2.97;;;36.80;60.90;;;;;;4975703;28;20038;-66
2023/07/09 11:17:39;;;;;;;8.45;3.10;;;37.10;62.70;;;;;;4975868;28;20019;-65
2023/07/09 11:20:19;;;;;;;11.35;3.08;;;36.90;60.20;;;;;;4975732;28;20493;-65
2023/07/09 11:22:54;;;;;;;4.93;2.88;;;36.70;60.00;;;;;;4975844;28;20034;-65
2023/07/09 11:25:42;;;;;;;7.70;3.13;;;36.90;62.70;;;;;;4975560;28;20070;-65
2023/07/09 11:28:09;;;;;;;8.88;3.22;;;37.10;60.90;;;;;;4958180;28;20053;-66
2023/07/09 11:30:46;;;;;;;5.75;2.97;;;37.00;59.60;;;;;;4975596;28;20034;-65
2023/07/09 11:33:17;;;;;;;10.52;2.72;;;36.90;61.00;;;;;;4975692;28;20034;-65
2023/07/09 11:35:49;;;;;;;4.63;2.60;;;36.80;60.30;;;;;;4975252;28;20049;-65
2023/07/09 11:38:23;;;;;;;5.85;3.30;;;36.90;61.90;;;;;;4975498;28;20018;-65
2023/07/09 11:40:51;;;;;;;7.95;3.40;;;37.00;62.80;;;;;;4975450;28;20034;-65
2023/07/09 11:43:33;;;;;;;5.75;2.83;;;36.90;59.50;;;;;;4975417;28;20070;-65
2023/07/09 11:46:10;;;;;;;7.20;2.97;;;36.90;60.60;;;;;;4975267;28;20029;-65
2023/07/09 11:48:39;;;;;;;6.03;3.20;;;36.80;59.10;;;;;;4975187;28;20101;-65
2023/07/09 11:51:16;;;;;;;7.40;2.60;;;37.00;60.60;;;;;;4975267;28;20019;-65
2023/07/09 11:53:47;;;;;;;6.60;3.10;;;37.20;61.20;;;;;;4975257;28;20046;-65
2023/07/09 11:56:13;;;;;;;4.38;2.33;;;37.20;60.70;;;;;;4975452;28;20406;-64
2023/07/09 11:58:52;;;;;;;6.43;3.40;;;37.20;59.80;;;;;;4974895;28;20030;-65
2023/07/09 12:01:21;;;;;;;4.57;3.13;;;37.20;60.60;;;;;;4975093;28;20069;-65
2023/07/09 12:03:48;;;;;;;10.85;4.05;;;37.30;59.50;;;;;;4975110;28;20029;-64
2023/07/09 12:06:30;;;;;;;6.05;3.00;;;37.20;59.50;;;;;;4974908;28;20027;-66
2023/07/09 12:08:56;;;;;;;4.30;2.55;;;37.30;60.50;;;;;;4957614;28;20026;-64
2023/07/09 12:11:34;;;;;;;5.55;3.13;;;37.30;60.90;;;;;;4957430;28;20118;-64
2023/07/09 12:14:04;;;;;;;5.65;3.13;;;37.30;61.70;;;;;;4974890;28;20069;-65
2023/07/09 12:16:35;;;;;;;5.30;3.10;;;37.30;60.60;;;;;;4974602;28;20018;-65
2023/07/09 12:19:00;;;;;;;6.88;2.75;;;37.30;61.50;;;;;;4974764;28;20050;-65
2023/07/09 12:21:26;;;;;;;4.30;2.90;;;37.20;61.10;;;;;;4957250;28;20035;-66
2023/07/09 12:23:55;;;;;;;6.43;3.15;;;37.10;60.20;;;;;;4974582;28;20023;-66
2023/07/09 12:26:21;;;;;;;7.20;3.45;;;37.20;60.50;;;;;;4957259;28;20026;-65
2023/07/09 12:28:56;;;;;;;5.25;3.15;;;37.30;61.50;;;;;;4974446;28;20489;-65
2023/07/09 12:31:30;;;;;;;8.95;3.00;;;37.30;61.60;;;;;;4974530;28;20042;-65
2023/07/09 12:33:57;;;;;;;11.30;3.22;;;37.30;59.80;;;;;;4974435;28;20038;-65
2023/07/09 12:36:27;;;;;;;6.10;3.28;;;37.10;58.70;;;;;;4974376;28;20366;-67
2023/07/09 12:38:56;;;;;;;14.93;3.70;;;37.30;59.40;;;;;;4974393;28;20512;-66
2023/07/09 12:41:44;;;;;;;7.07;3.55;;;37.30;60.00;;;;;;4974321;28;20030;-65
2023/07/09 12:44:21;;;;;;;6.88;2.88;;;37.30;59.70;;;;;;4957060;28;20023;-66
2023/07/09 12:46:48;;;;;;;5.32;2.65;;;37.50;60.50;;;;;;4974055;28;20034;-65
2023/07/09 12:49:25;;;;;;;5.60;3.05;;;37.40;61.00;;;;;;4974415;28;20062;-65
2023/07/09 12:51:53;;;;;;;5.55;3.00;;;37.30;59.40;;;;;;4974412;28;20022;-66
2023/07/09 12:54:23;;;;;;;5.95;2.80;;;37.20;58.10;;;;;;4974097;28;20031;-66
2023/07/09 12:56:53;;;;;;;4.32;2.70;;;37.30;59.30;;;;;;4973743;28;20030;-65
2023/07/09 12:59:21;;;;;;;6.53;3.00;;;37.30;60.50;;;;;;4974014;28;20029;-65